Time;durP1;ratioP1;P1;durP2;ratioP2;P2;SDS_P1;SDS_P2;PMS_P1;PMS_P2;Temp;Humidity;BMP_temperature;BMP_pressure;BME280_temperature;BME280_humidity;BME280_pressure;Samples;Min_cycle;Max_cycle;Signal;HPM_P1;HPM_P2
2023/08/18 00:00:48;;;;;;;;;;;;;;;;;;7373116;19;774;-64
2023/08/18 00:03:16;;;;;;;;;;;;;;;;;;7372783;19;1558;-64
2023/08/18 00:05:44;;;;;;;;;;;;;;;;;;7368182;19;1842;-64
2023/08/18 00:08:12;;;;;;;;;;;;;;;;;;7369915;19;805;-64
2023/08/18 00:10:40;;;;;;;;;;;;;;;;;;7371824;19;1403;-64
2023/08/18 00:13:09;;;;;;;;;;;;;;;;;;7369358;19;1337;-64
2023/08/18 00:15:37;;;;;;;;;;;;;;;;;;7373021;19;1814;-64
2023/08/18 00:18:05;;;;;;;;;;;;;;;;;;7373321;19;1667;-63
2023/08/18 00:20:33;;;;;;;;;;;;;;;;;;7371887;19;1954;-64
2023/08/18 00:23:02;;;;;;;;;;;;;;;;;;7371515;19;1549;-64
2023/08/18 00:25:30;;;;;;;;;;;;;;;;;;7371117;19;1854;-64
2023/08/18 00:27:58;;;;;;;;;;;;;;;;;;7372906;19;1358;-63
2023/08/18 00:30:26;;;;;;;;;;;;;;;;;;7368453;19;2154;-64
2023/08/18 00:32:54;;;;;;;;;;;;;;;;;;7371985;19;1595;-64
2023/08/18 00:35:23;;;;;;;;;;;;;;;;;;7367688;19;831;-64
2023/08/18 00:37:51;;;;;;;;;;;;;;;;;;7370285;19;861;-64
2023/08/18 00:40:20;;;;;;;;;;;;;;;;;;7372124;19;1583;-62
2023/08/18 00:42:48;;;;;;;;;;;;;;;;;;7367277;19;1271;-64
2023/08/18 00:45:16;;;;;;;;;;;;;;;;;;7366186;19;1814;-64
2023/08/18 00:47:44;;;;;;;;;;;;;;;;;;7370722;19;1427;-64
2023/08/18 00:50:12;;;;;;;;;;;;;;;;;;7372604;19;1077;-64
2023/08/18 00:52:40;;;;;;;;;;;;;;;;;;7366684;19;1248;-64
2023/08/18 00:55:08;;;;;;;;;;;;;;;;;;7369285;19;822;-64
2023/08/18 00:57:37;;;;;;;;;;;;;;;;;;7367773;19;1669;-64
2023/08/18 01:00:05;;;;;;;;;;;;;;;;;;7371615;19;1015;-64
2023/08/18 01:02:33;;;;;;;;;;;;;;;;;;7371966;19;1444;-64
2023/08/18 01:05:02;;;;;;;;;;;;;;;;;;7367764;19;1857;-64
2023/08/18 01:07:30;;;;;;;;;;;;;;;;;;7368648;19;1684;-64
2023/08/18 01:09:58;;;;;;;;;;;;;;;;;;7370518;19;1522;-64
2023/08/18 01:12:27;;;;;;;;;;;;;;;;;;7368879;19;1363;-64
2023/08/18 01:14:55;;;;;;;;;;;;;;;;;;7366399;19;842;-64
2023/08/18 01:17:23;;;;;;;;;;;;;;;;;;7370931;19;1744;-64
2023/08/18 01:19:52;;;;;;;;;;;;;;;;;;7368366;19;878;-64
2023/08/18 01:22:20;;;;;;;;;;;;;;;;;;7368339;19;1266;-64
2023/08/18 01:24:48;;;;;;;;;;;;;;;;;;7367906;19;1838;-64
2023/08/18 01:27:16;;;;;;;;;;;;;;;;;;7371935;19;1680;-64
2023/08/18 01:29:44;;;;;;;;;;;;;;;;;;7367612;19;855;-64
2023/08/18 01:32:12;;;;;;;;;;;;;;;;;;7366670;19;1266;-64
2023/08/18 01:34:40;;;;;;;;;;;;;;;;;;7366201;19;853;-64
2023/08/18 01:37:10;;;;;;;;;;;;;;;;;;7369391;19;1712;-64
2023/08/18 01:39:38;;;;;;;;;;;;;;;;;;7369298;19;1802;-64
2023/08/18 01:42:06;;;;;;;;;;;;;;;;;;7369805;19;1545;-63
2023/08/18 01:44:34;;;;;;;;;;;;;;;;;;7371351;19;1861;-64
2023/08/18 01:47:02;;;;;;;;;;;;;;;;;;7370223;19;1564;-64
2023/08/18 01:49:30;;;;;;;;;;;;;;;;;;7370766;19;1432;-64
2023/08/18 01:51:58;;;;;;;;;;;;;;;;;;7367599;19;734;-64
2023/08/18 01:54:26;;;;;;;;;;;;;;;;;;7365030;19;1336;-63
2023/08/18 01:56:55;;;;;;;;;;;;;;;;;;7370032;19;1698;-64
2023/08/18 01:59:23;;;;;;;;;;;;;;;;;;7368438;19;1586;-64
2023/08/18 02:01:51;;;;;;;;;;;;;;;;;;7368492;19;1694;-64
2023/08/18 02:04:19;;;;;;;;;;;;;;;;;;7364177;19;1830;-64
2023/08/18 02:06:47;;;;;;;;;;;;;;;;;;7369736;19;1448;-64
2023/08/18 02:09:17;;;;;;;;;;;;;;;;;;7364516;19;813;-64
2023/08/18 02:11:45;;;;;;;;;;;;;;;;;;7367346;19;1849;-63
2023/08/18 02:14:13;;;;;;;;;;;;;;;;;;7366175;19;1438;-64
2023/08/18 02:16:42;;;;;;;;;;;;;;;;;;7366941;19;789;-62
2023/08/18 02:19:10;;;;;;;;;;;;;;;;;;7363722;19;1698;-64
2023/08/18 02:21:38;;;;;;;;;;;;;;;;;;7369918;19;1571;-64
2023/08/18 02:24:06;;;;;;;;;;;;;;;;;;7363857;19;1282;-63
2023/08/18 02:26:36;;;;;;;;;;;;;;;;;;7365124;19;933;-64
2023/08/18 02:29:04;;;;;;;;;;;;;;;;;;7369726;19;2095;-64
2023/08/18 02:31:32;;;;;;;;;;;;;;;;;;7368773;19;1854;-64
2023/08/18 02:34:00;;;;;;;;;;;;;;;;;;7366798;19;1546;-64
2023/08/18 02:36:28;;;;;;;;;;;;;;;;;;7364994;19;864;-64
2023/08/18 02:38:57;;;;;;;;;;;;;;;;;;7366186;19;2019;-64
2023/08/18 02:41:25;;;;;;;;;;;;;;;;;;7370128;19;1432;-64
2023/08/18 02:43:53;;;;;;;;;;;;;;;;;;7364052;19;1818;-64
2023/08/18 02:46:21;;;;;;;;;;;;;;;;;;7368459;19;1837;-63
2023/08/18 02:48:49;;;;;;;;;;;;;;;;;;7374744;19;1430;-63
2023/08/18 02:51:18;;;;;;;;;;;;;;;;;;7373129;19;1681;-64
2023/08/18 02:53:48;;;;;;;;;;;;;;;;;;7372025;19;1599;-64
2023/08/18 02:56:16;;;;;;;;;;;;;;;;;;7374195;19;1608;-63
2023/08/18 02:58:45;;;;;;;;;;;;;;;;;;7372265;19;1491;-64
2023/08/18 03:01:13;;;;;;;;;;;;;;;;;;7373215;19;1751;-63
2023/08/18 03:03:41;;;;;;;;;;;;;;;;;;7373335;19;1641;-63
2023/08/18 03:06:10;;;;;;;;;;;;;;;;;;7371151;19;1857;-63
2023/08/18 03:08:39;;;;;;;;;;;;;;;;;;7371264;19;807;-63
2023/08/18 03:11:07;;;;;;;;;;;;;;;;;;7374894;19;1665;-64
2023/08/18 03:13:36;;;;;;;;;;;;;;;;;;7372584;19;1680;-64
2023/08/18 03:16:04;;;;;;;;;;;;;;;;;;7369896;19;876;-64
2023/08/18 03:18:32;;;;;;;;;;;;;;;;;;7370481;19;1895;-63
2023/08/18 03:21:01;;;;;;;;;;;;;;;;;;7373668;19;1683;-62
2023/08/18 03:23:29;;;;;;;;;;;;;;;;;;7368207;19;1294;-63
2023/08/18 03:25:58;;;;;;;;;;;;;;;;;;7369481;19;1846;-62
2023/08/18 03:28:26;;;;;;;;;;;;;;;;;;7374424;19;1236;-63
2023/08/18 03:30:54;;;;;;;;;;;;;;;;;;7369534;19;822;-63
2023/08/18 03:33:22;;;;;;;;;;;;;;;;;;7370145;19;1282;-63
2023/08/18 03:35:50;;;;;;;;;;;;;;;;;;7370311;19;1685;-62
2023/08/18 03:38:18;;;;;;;;;;;;;;;;;;7372737;19;1129;-63
2023/08/18 03:40:47;;;;;;;;;;;;;;;;;;7370131;19;1459;-62
2023/08/18 03:43:15;;;;;;;;;;;;;;;;;;7373194;19;1664;-63
2023/08/18 03:45:43;;;;;;;;;;;;;;;;;;7368328;19;1949;-62
2023/08/18 03:48:11;;;;;;;;;;;;;;;;;;7369678;19;1657;-63
2023/08/18 03:50:40;;;;;;;;;;;;;;;;;;7372391;19;1839;-63
2023/08/18 03:53:08;;;;;;;;;;;;;;;;;;7371485;19;1674;-63
2023/08/18 03:55:36;;;;;;;;;;;;;;;;;;7373334;19;1464;-63
2023/08/18 03:58:05;;;;;;;;;;;;;;;;;;7367604;19;865;-63
2023/08/18 04:00:34;;;;;;;;;;;;;;;;;;7368886;19;1687;-63
2023/08/18 04:03:03;;;;;;;;;;;;;;;;;;7371119;19;2137;-62
2023/08/18 04:05:31;;;;;;;;;;;;;;;;;;7372106;19;1864;-63
2023/08/18 04:08:00;;;;;;;;;;;;;;;;;;7368332;19;1768;-62
2023/08/18 04:10:28;;;;;;;;;;;;;;;;;;7372441;19;1672;-62
2023/08/18 04:12:56;;;;;;;;;;;;;;;;;;7369119;19;1332;-62
2023/08/18 04:15:24;;;;;;;;;;;;;;;;;;7369962;19;1891;-63
2023/08/18 04:17:52;;;;;;;;;;;;;;;;;;7372471;19;1463;-63
2023/08/18 04:20:21;;;;;;;;;;;;;;;;;;7371606;19;1105;-64
2023/08/18 04:22:49;;;;;;;;;;;;;;;;;;7367477;19;1576;-63
2023/08/18 04:25:17;;;;;;;;;;;;;;;;;;7369577;19;1882;-63
2023/08/18 04:27:46;;;;;;;;;;;;;;;;;;7367821;19;862;-63
2023/08/18 04:30:14;;;;;;;;;;;;;;;;;;7366897;19;2115;-63
2023/08/18 04:32:42;;;;;;;;;;;;;;;;;;7371973;19;1853;-62
2023/08/18 04:35:10;;;;;;;;;;;;;;;;;;7367412;19;877;-62
2023/08/18 04:37:38;;;;;;;;;;;;;;;;;;7368817;19;765;-62
2023/08/18 04:40:07;;;;;;;;;;;;;;;;;;7368382;19;2080;-63
2023/08/18 04:42:35;;;;;;;;;;;;;;;;;;7372631;19;1422;-63
2023/08/18 04:45:04;;;;;;;;;;;;;;;;;;7366586;19;1849;-63
2023/08/18 04:47:32;;;;;;;;;;;;;;;;;;7369799;19;1785;-63
2023/08/18 04:50:01;;;;;;;;;;;;;;;;;;7369707;19;1264;-63
2023/08/18 04:52:29;;;;;;;;;;;;;;;;;;7367954;19;1266;-63
2023/08/18 04:54:57;;;;;;;;;;;;;;;;;;7366867;19;795;-62
2023/08/18 04:57:25;;;;;;;;;;;;;;;;;;7365794;19;791;-61
2023/08/18 04:59:53;;;;;;;;;;;;;;;;;;7366962;19;1636;-61
2023/08/18 05:02:22;;;;;;;;;;;;;;;;;;7370219;19;1511;-62
2023/08/18 05:04:51;;;;;;;;;;;;;;;;;;7367624;19;897;-62
2023/08/18 05:07:20;;;;;;;;;;;;;;;;;;7363652;19;2009;-62
2023/08/18 05:09:49;;;;;;;;;;;;;;;;;;7368279;19;1218;-62
2023/08/18 05:12:17;;;;;;;;;;;;;;;;;;7366748;19;1296;-62
2023/08/18 05:14:45;;;;;;;;;;;;;;;;;;7368056;19;1872;-62
2023/08/18 05:17:14;;;;;;;;;;;;;;;;;;7371396;19;1663;-62
2023/08/18 05:19:42;;;;;;;;;;;;;;;;;;7367059;19;1288;-62
2023/08/18 05:22:10;;;;;;;;;;;;;;;;;;7367100;19;1456;-63
2023/08/18 05:24:39;;;;;;;;;;;;;;;;;;7372090;19;1205;-63
2023/08/18 05:27:07;;;;;;;;;;;;;;;;;;7364542;19;1857;-62
2023/08/18 05:29:35;;;;;;;;;;;;;;;;;;7366221;19;767;-61
2023/08/18 05:32:03;;;;;;;;;;;;;;;;;;7370282;19;1829;-62
2023/08/18 05:34:31;;;;;;;;;;;;;;;;;;7368583;19;1906;-62
2023/08/18 05:36:59;;;;;;;;;;;;;;;;;;7366734;19;795;-62
2023/08/18 05:39:27;;;;;;;;;;;;;;;;;;7368522;19;1610;-63
2023/08/18 05:41:55;;;;;;;;;;;;;;;;;;7370063;19;1197;-62
2023/08/18 05:44:24;;;;;;;;;;;;;;;;;;7363929;19;1278;-62
2023/08/18 05:46:52;;;;;;;;;;;;;;;;;;7362819;19;1886;-63
2023/08/18 05:49:21;;;;;;;;;;;;;;;;;;7368204;19;1796;-63
2023/08/18 05:51:49;;;;;;;;;;;;;;;;;;7370886;19;1708;-62
2023/08/18 05:54:17;;;;;;;;;;;;;;;;;;7368200;19;1679;-62
2023/08/18 05:56:48;;;;;;;;;;;;;;;;;;7364343;19;1173;-64
2023/08/18 05:59:16;;;;;;;;;;;;;;;;;;7370456;19;1671;-61
2023/08/18 06:01:44;;;;;;;;;;;;;;;;;;7368193;19;1844;-62
2023/08/18 06:04:12;;;;;;;;;;;;;;;;;;7365097;19;1656;-63
2023/08/18 06:06:41;;;;;;;;;;;;;;;;;;7368624;19;1857;-62
2023/08/18 06:09:09;;;;;;;;;;;;;;;;;;7366369;19;865;-63
2023/08/18 06:11:37;;;;;;;;;;;;;;;;;;7367335;19;810;-62
2023/08/18 06:14:05;;;;;;;;;;;;;;;;;;7366392;19;1846;-64
2023/08/18 06:16:33;;;;;;;;;;;;;;;;;;7370856;19;1669;-64
2023/08/18 06:19:01;;;;;;;;;;;;;;;;;;7366306;19;840;-62
2023/08/18 06:21:29;;;;;;;;;;;;;;;;;;7366751;19;1728;-62
2023/08/18 06:23:58;;;;;;;;;;;;;;;;;;7366463;19;1567;-63
2023/08/18 06:26:26;;;;;;;;;;;;;;;;;;7370125;19;1846;-62
2023/08/18 06:28:54;;;;;;;;;;;;;;;;;;7363828;19;1903;-63
2023/08/18 06:31:22;;;;;;;;;;;;;;;;;;7368213;19;1645;-61
2023/08/18 06:33:50;;;;;;;;;;;;;;;;;;7366254;19;1374;-63
2023/08/18 06:36:19;;;;;;;;;;;;;;;;;;7364131;19;840;-62
2023/08/18 06:38:47;;;;;;;;;;;;;;;;;;7365825;19;853;-61
2023/08/18 06:41:15;;;;;;;;;;;;;;;;;;7364592;19;790;-62
2023/08/18 06:43:43;;;;;;;;;;;;;;;;;;7364891;19;1288;-61
2023/08/18 06:46:11;;;;;;;;;;;;;;;;;;7365210;19;1845;-62
2023/08/18 06:48:39;;;;;;;;;;;;;;;;;;7366304;19;854;-61
2023/08/18 06:51:07;;;;;;;;;;;;;;;;;;7366399;19;810;-61
2023/08/18 06:53:36;;;;;;;;;;;;;;;;;;7364737;19;1334;-61
2023/08/18 06:56:04;;;;;;;;;;;;;;;;;;7366871;19;1893;-62
2023/08/18 06:58:32;;;;;;;;;;;;;;;;;;7367726;19;1737;-63
2023/08/18 07:01:00;;;;;;;;;;;;;;;;;;7368471;19;1953;-64
2023/08/18 07:03:28;;;;;;;;;;;;;;;;;;7366672;19;2123;-65
2023/08/18 07:05:57;;;;;;;;;;;;;;;;;;7366602;19;1849;-63
2023/08/18 07:08:25;;;;;;;;;;;;;;;;;;7365722;19;1803;-64
2023/08/18 07:10:53;;;;;;;;;;;;;;;;;;7368635;19;1613;-62
2023/08/18 07:13:22;;;;;;;;;;;;;;;;;;7366845;19;1858;-62
2023/08/18 07:15:50;;;;;;;;;;;;;;;;;;7365043;19;2197;-63
2023/08/18 07:18:18;;;;;;;;;;;;;;;;;;7364412;19;1728;-62
2023/08/18 07:20:46;;;;;;;;;;;;;;;;;;7366334;19;1600;-62
2023/08/18 07:23:15;;;;;;;;;;;;;;;;;;7366863;19;2118;-62
2023/08/18 07:25:43;;;;;;;;;;;;;;;;;;7368499;19;1849;-62
2023/08/18 07:28:11;;;;;;;;;;;;;;;;;;7368025;19;1576;-62
2023/08/18 07:30:39;;;;;;;;;;;;;;;;;;7366016;19;876;-59
2023/08/18 07:33:07;;;;;;;;;;;;;;;;;;7374255;19;1825;-62
2023/08/18 07:35:35;;;;;;;;;;;;;;;;;;7374740;19;1704;-62
2023/08/18 07:38:03;;;;;;;;;;;;;;;;;;7375762;19;1841;-63
2023/08/18 07:40:32;;;;;;;;;;;;;;;;;;7372582;19;1949;-64
2023/08/18 07:43:00;;;;;;;;;;;;;;;;;;7375385;19;1808;-63
2023/08/18 07:45:28;;;;;;;;;;;;;;;;;;7376924;19;1446;-62
2023/08/18 07:47:57;;;;;;;;;;;;;;;;;;7367416;19;1849;-60
2023/08/18 07:50:25;;;;;;;;;;;;;;;;;;7370671;19;1886;-63
2023/08/18 07:52:53;;;;;;;;;;;;;;;;;;7372741;19;1470;-64
2023/08/18 07:55:21;;;;;;;;;;;;;;;;;;7370322;19;2078;-67
2023/08/18 07:57:50;;;;;;;;;;;;;;;;;;7372938;19;1967;-65
2023/08/18 08:00:19;;;;;;;;;;;;;;;;;;7374341;19;1860;-63
2023/08/18 08:02:47;;;;;;;;;;;;;;;;;;7371349;19;1771;-62
2023/08/18 08:05:17;;;;;;;;;;;;;;;;;;7374465;19;1247;-63
2023/08/18 08:07:45;;;;;;;;;;;;;;;;;;7368988;19;1843;-63
2023/08/18 08:10:14;;;;;;;;;;;;;;;;;;7367594;19;2007;-64
2023/08/18 08:12:42;;;;;;;;;;;;;;;;;;7373806;19;2002;-64
2023/08/18 08:15:10;;;;;;;;;;;;;;;;;;7372536;19;1881;-63
2023/08/18 08:17:39;;;;;;;;;;;;;;;;;;7373083;19;1571;-63
2023/08/18 08:20:10;;;;;;;;;;;;;;;;;;7373597;19;1369;-62
2023/08/18 08:22:38;;;;;;;;;;;;;;;;;;7374006;19;1666;-64
2023/08/18 08:25:07;;;;;;;;;;;;;;;;;;7371461;19;1653;-63
2023/08/18 08:27:36;;;;;;;;;;;;;;;;;;7371136;19;1858;-63
2023/08/18 08:30:04;;;;;;;;;;;;;;;;;;7372471;19;1665;-63
2023/08/18 08:32:32;;;;;;;;;;;;;;;;;;7368858;19;1331;-63
2023/08/18 08:35:00;;;;;;;;;;;;;;;;;;7369393;19;827;-61
2023/08/18 08:37:28;;;;;;;;;;;;;;;;;;7369801;19;1810;-63
2023/08/18 08:39:56;;;;;;;;;;;;;;;;;;7371514;19;1482;-64
2023/08/18 08:42:24;;;;;;;;;;;;;;;;;;7369418;19;1365;-64
2023/08/18 08:44:53;;;;;;;;;;;;;;;;;;7369269;19;867;-64
2023/08/18 08:47:21;;;;;;;;;;;;;;;;;;7367401;19;1923;-65
2023/08/18 08:49:49;;;;;;;;;;;;;;;;;;7369479;19;1611;-64
2023/08/18 08:52:17;;;;;;;;;;;;;;;;;;7372722;19;1691;-64
2023/08/18 08:54:45;;;;;;;;;;;;;;;;;;7372847;19;2073;-64
2023/08/18 08:57:13;;;;;;;;;;;;;;;;;;7370922;19;1704;-63
2023/08/18 08:59:41;;;;;;;;;;;;;;;;;;7368533;19;1664;-63
2023/08/18 09:02:10;;;;;;;;;;;;;;;;;;7372658;19;1654;-63
2023/08/18 09:04:38;;;;;;;;;;;;;;;;;;7371547;19;1868;-64
2023/08/18 09:07:07;;;;;;;;;;;;;;;;;;7370178;19;2030;-64
2023/08/18 09:09:35;;;;;;;;;;;;;;;;;;7373561;19;1654;-64
2023/08/18 09:12:06;;;;;;;;;;;;;;;;;;7369168;19;1943;-64
2023/08/18 09:14:34;;;;;;;;;;;;;;;;;;7370334;19;1794;-63
2023/08/18 09:17:02;;;;;;;;;;;;;;;;;;7370915;19;1836;-63
2023/08/18 09:19:30;;;;;;;;;;;;;;;;;;7371289;19;1637;-64
2023/08/18 09:21:58;;;;;;;;;;;;;;;;;;7371711;19;1440;-64
2023/08/18 09:24:29;;;;;;;;;;;;;;;;;;7367704;19;2149;-65
2023/08/18 09:26:57;;;;;;;;;;;;;;;;;;7369119;19;1859;-64
2023/08/18 09:29:25;;;;;;;;;;;;;;;;;;7370929;19;1921;-63
2023/08/18 09:31:53;;;;;;;;;;;;;;;;;;7373433;19;1332;-64
2023/08/18 09:34:22;;;;;;;;;;;;;;;;;;7365141;19;1361;-64
2023/08/18 09:36:50;;;;;;;;;;;;;;;;;;7368163;19;1595;-64
2023/08/18 09:39:18;;;;;;;;;;;;;;;;;;7369799;19;1968;-64
2023/08/18 09:41:46;;;;;;;;;;;;;;;;;;7367232;19;2008;-64
2023/08/18 09:44:14;;;;;;;;;;;;;;;;;;7365196;19;1847;-63
2023/08/18 09:46:42;;;;;;;;;;;;;;;;;;7369952;19;1814;-64
2023/08/18 09:49:11;;;;;;;;;;;;;;;;;;7368055;19;1937;-64
2023/08/18 09:51:39;;;;;;;;;;;;;;;;;;7371487;19;1909;-64
2023/08/18 09:54:07;;;;;;;;;;;;;;;;;;7365399;19;1966;-63
2023/08/18 09:56:35;;;;;;;;;;;;;;;;;;7371677;19;1831;-63
2023/08/18 09:59:03;;;;;;;;;;;;;;;;;;7368062;19;1702;-63
2023/08/18 10:01:31;;;;;;;;;;;;;;;;;;7373418;19;1319;-62
2023/08/18 10:03:59;;;;;;;;;;;;;;;;;;7366872;19;1282;-63
2023/08/18 10:06:27;;;;;;;;;;;;;;;;;;7369664;19;1853;-62
2023/08/18 10:08:56;;;;;;;;;;;;;;;;;;7368890;19;2011;-62
2023/08/18 10:11:24;;;;;;;;;;;;;;;;;;7371100;19;1828;-62
2023/08/18 10:13:52;;;;;;;;;;;;;;;;;;7369043;19;1511;-64
2023/08/18 10:16:20;;;;;;;;;;;;;;;;;;7367289;19;2059;-63
2023/08/18 10:18:48;;;;;;;;;;;;;;;;;;7368949;19;1751;-64
2023/08/18 10:21:16;;;;;;;;;;;;;;;;;;7368054;19;857;-64
2023/08/18 10:23:46;;;;;;;;;;;;;;;;;;7366704;19;1928;-63
2023/08/18 10:26:14;;;;;;;;;;;;;;;;;;7369417;19;1733;-64
2023/08/18 10:28:42;;;;;;;;;;;;;;;;;;7367322;19;1850;-64
2023/08/18 10:31:11;;;;;;;;;;;;;;;;;;7363778;19;1872;-63
2023/08/18 10:33:39;;;;;;;;;;;;;;;;;;7367342;19;1953;-63
2023/08/18 10:36:07;;;;;;;;;;;;;;;;;;7365395;19;1973;-64
2023/08/18 10:38:36;;;;;;;;;;;;;;;;;;7359344;19;1856;-64
2023/08/18 10:41:04;;;;;;;;;;;;;;;;;;7370600;19;1627;-63
2023/08/18 10:43:32;;;;;;;;;;;;;;;;;;7370949;19;1457;-63
2023/08/18 10:46:01;;;;;;;;;;;;;;;;;;7367218;19;897;-63
2023/08/18 10:48:29;;;;;;;;;;;;;;;;;;7366280;19;1834;-64
2023/08/18 10:50:57;;;;;;;;;;;;;;;;;;7369436;19;837;-64
2023/08/18 10:53:25;;;;;;;;;;;;;;;;;;7368456;19;1280;-64
2023/08/18 10:55:54;;;;;;;;;;;;;;;;;;7370582;19;780;-64
2023/08/18 10:58:22;;;;;;;;;;;;;;;;;;7369655;19;814;-64
2023/08/18 11:00:51;;;;;;;;;;;;;;;;;;7369929;19;2150;-64
2023/08/18 11:03:19;;;;;;;;;;;;;;;;;;7371548;19;1785;-63
2023/08/18 11:05:47;;;;;;;;;;;;;;;;;;7371816;19;1660;-64
2023/08/18 11:08:15;;;;;;;;;;;;;;;;;;7375452;19;2108;-64
2023/08/18 11:10:43;;;;;;;;;;;;;;;;;;7381352;19;1559;-64
2023/08/18 11:13:11;;;;;;;;;;;;;;;;;;7374589;19;1351;-64
2023/08/18 11:15:39;;;;;;;;;;;;;;;;;;7374713;19;845;-64
2023/08/18 11:18:08;;;;;;;;;;;;;;;;;;7372933;19;786;-64
2023/08/18 11:20:36;;;;;;;;;;;;;;;;;;7375220;19;1759;-62
2023/08/18 11:23:04;;;;;;;;;;;;;;;;;;7375348;19;1360;-63
2023/08/18 11:25:33;;;;;;;;;;;;;;;;;;7372498;19;849;-65
2023/08/18 11:28:01;;;;;;;;;;;;;;;;;;7371010;19;1912;-63
2023/08/18 11:30:29;;;;;;;;;;;;;;;;;;7375015;19;1662;-64
2023/08/18 11:32:57;;;;;;;;;;;;;;;;;;7370788;19;1360;-63
2023/08/18 11:35:25;;;;;;;;;;;;;;;;;;7371917;19;1803;-63
2023/08/18 11:37:54;;;;;;;;;;;;;;;;;;7375552;19;2065;-64
2023/08/18 11:40:22;;;;;;;;;;;;;;;;;;7375140;19;1640;-64
2023/08/18 11:42:50;;;;;;;;;;;;;;;;;;7374401;19;1426;-64
2023/08/18 11:45:18;;;;;;;;;;;;;;;;;;7372954;19;1862;-63
2023/08/18 11:47:46;;;;;;;;;;;;;;;;;;7372995;19;1851;-64
2023/08/18 11:50:19;;;;;;;;;;;;;;;;;;7374480;19;1448;-64
2023/08/18 11:52:47;;;;;;;;;;;;;;;;;;7369222;19;1664;-64
2023/08/18 11:55:15;;;;;;;;;;;;;;;;;;7375652;19;1512;-64
2023/08/18 11:57:45;;;;;;;;;;;;;;;;;;7372470;19;774;-64
2023/08/18 12:00:14;;;;;;;;;;;;;;;;;;7368465;19;1568;-64
2023/08/18 12:02:42;;;;;;;;;;;;;;;;;;7376474;19;1474;-64
2023/08/18 12:05:10;;;;;;;;;;;;;;;;;;7371976;19;1893;-64
2023/08/18 12:07:38;;;;;;;;;;;;;;;;;;7374998;19;1845;-63
2023/08/18 12:10:07;;;;;;;;;;;;;;;;;;7372373;19;1930;-65
2023/08/18 12:12:35;;;;;;;;;;;;;;;;;;7371326;19;2297;-65
2023/08/18 12:15:04;;;;;;;;;;;;;;;;;;7373650;19;1824;-65
2023/08/18 12:17:32;;;;;;;;;;;;;;;;;;7375260;19;1438;-64
2023/08/18 12:20:00;;;;;;;;;;;;;;;;;;7371963;19;845;-64
2023/08/18 12:22:28;;;;;;;;;;;;;;;;;;7373693;19;1567;-64
2023/08/18 12:24:56;;;;;;;;;;;;;;;;;;7377229;19;1556;-63
2023/08/18 12:27:27;;;;;;;;;;;;;;;;;;7373779;19;1845;-63
2023/08/18 12:29:55;;;;;;;;;;;;;;;;;;7375290;19;1363;-64
2023/08/18 12:32:23;;;;;;;;;;;;;;;;;;7373381;19;1369;-64
2023/08/18 12:34:51;;;;;;;;;;;;;;;;;;7370881;19;1820;-64
2023/08/18 12:37:20;;;;;;;;;;;;;;;;;;7374960;19;1593;-64
2023/08/18 12:39:49;;;;;;;;;;;;;;;;;;7370206;19;852;-64
2023/08/18 12:42:17;;;;;;;;;;;;;;;;;;7370657;19;1699;-64
2023/08/18 12:44:45;;;;;;;;;;;;;;;;;;7372141;19;1439;-64
2023/08/18 12:47:13;;;;;;;;;;;;;;;;;;7368483;19;1820;-64
2023/08/18 12:49:41;;;;;;;;;;;;;;;;;;7369404;19;928;-64
2023/08/18 12:52:10;;;;;;;;;;;;;;;;;;7371022;19;1874;-64
2023/08/18 12:54:38;;;;;;;;;;;;;;;;;;7372045;19;1690;-64
2023/08/18 12:57:06;;;;;;;;;;;;;;;;;;7368450;19;2099;-64
2023/08/18 12:59:35;;;;;;;;;;;;;;;;;;7373035;19;1871;-64
2023/08/18 13:02:03;;;;;;;;;;;;;;;;;;7370477;19;841;-64
2023/08/18 13:04:32;;;;;;;;;;;;;;;;;;7366023;19;1281;-65
2023/08/18 13:07:00;;;;;;;;;;;;;;;;;;7371694;19;1871;-66
2023/08/18 13:09:29;;;;;;;;;;;;;;;;;;7369573;19;1841;-68
2023/08/18 13:11:57;;;;;;;;;;;;;;;;;;7374060;19;1624;-64
2023/08/18 13:14:25;;;;;;;;;;;;;;;;;;7371278;19;1663;-65
2023/08/18 13:16:53;;;;;;;;;;;;;;;;;;7370077;19;903;-65
2023/08/18 13:19:21;;;;;;;;;;;;;;;;;;7366085;19;1708;-65
2023/08/18 13:21:50;;;;;;;;;;;;;;;;;;7364143;19;1783;-65
2023/08/18 13:24:18;;;;;;;;;;;;;;;;;;7364355;19;1913;-65
2023/08/18 13:26:46;;;;;;;;;;;;;;;;;;7364522;19;1882;-66
2023/08/18 13:29:14;;;;;;;;;;;;;;;;;;7361131;19;1936;-65
2023/08/18 13:31:42;;;;;;;;;;;;;;;;;;7374182;19;1912;-65
2023/08/18 13:34:10;;;;;;;;;;;;;;;;;;7364452;19;1339;-65
2023/08/18 13:36:40;;;;;;;;;;;;;;;;;;7368694;19;856;-66
2023/08/18 13:39:08;;;;;;;;;;;;;;;;;;7369126;19;769;-65
2023/08/18 13:41:38;;;;;;;;;;;;;;;;;;7370957;19;852;-65
2023/08/18 13:44:06;;;;;;;;;;;;;;;;;;7368083;19;1344;-65
2023/08/18 13:46:34;;;;;;;;;;;;;;;;;;7370905;19;873;-64
2023/08/18 13:49:02;;;;;;;;;;;;;;;;;;7367466;19;1833;-65
2023/08/18 13:51:31;;;;;;;;;;;;;;;;;;7370196;19;865;-64
2023/08/18 13:53:59;;;;;;;;;;;;;;;;;;7368341;19;1286;-65
2023/08/18 13:56:27;;;;;;;;;;;;;;;;;;7371214;19;865;-65
2023/08/18 13:58:55;;;;;;;;;;;;;;;;;;7369747;19;825;-63
2023/08/18 14:01:23;;;;;;;;;;;;;;;;;;7370830;19;815;-64
2023/08/18 14:03:52;;;;;;;;;;;;;;;;;;7368039;19;1449;-68
2023/08/18 14:06:20;;;;;;;;;;;;;;;;;;7371812;19;767;-65
2023/08/18 14:08:48;;;;;;;;;;;;;;;;;;7369806;19;1814;-64
2023/08/18 14:11:16;;;;;;;;;;;;;;;;;;7370742;19;1985;-64
2023/08/18 14:13:44;;;;;;;;;;;;;;;;;;7371824;19;1548;-66
2023/08/18 14:16:12;;;;;;;;;;;;;;;;;;7367692;19;1511;-64
2023/08/18 14:18:41;;;;;;;;;;;;;;;;;;7369035;19;875;-64
2023/08/18 14:21:09;;;;;;;;;;;;;;;;;;7370012;19;838;-65
2023/08/18 14:23:37;;;;;;;;;;;;;;;;;;7368306;19;1281;-64
2023/08/18 14:26:05;;;;;;;;;;;;;;;;;;7367337;19;790;-64
2023/08/18 14:28:33;;;;;;;;;;;;;;;;;;7365170;19;1853;-64
2023/08/18 14:31:02;;;;;;;;;;;;;;;;;;7369872;19;884;-64
2023/08/18 14:33:30;;;;;;;;;;;;;;;;;;7363994;19;1284;-64
2023/08/18 14:35:58;;;;;;;;;;;;;;;;;;7368215;19;839;-64
2023/08/18 14:38:26;;;;;;;;;;;;;;;;;;7366273;19;861;-65
2023/08/18 14:40:54;;;;;;;;;;;;;;;;;;7367698;19;834;-64
2023/08/18 14:43:23;;;;;;;;;;;;;;;;;;7365350;19;1330;-65
2023/08/18 14:45:51;;;;;;;;;;;;;;;;;;7366069;19;859;-64
2023/08/18 14:48:19;;;;;;;;;;;;;;;;;;7369512;19;1837;-65
2023/08/18 14:50:47;;;;;;;;;;;;;;;;;;7367844;19;841;-64
2023/08/18 14:53:16;;;;;;;;;;;;;;;;;;7364252;19;1243;-64
2023/08/18 14:55:44;;;;;;;;;;;;;;;;;;7366590;19;832;-64
2023/08/18 14:58:12;;;;;;;;;;;;;;;;;;7365562;19;811;-64
2023/08/18 15:00:40;;;;;;;;;;;;;;;;;;7366743;19;798;-64
2023/08/18 15:03:08;;;;;;;;;;;;;;;;;;7364769;19;1293;-64
2023/08/18 15:05:37;;;;;;;;;;;;;;;;;;7369647;19;1830;-64
2023/08/18 15:08:05;;;;;;;;;;;;;;;;;;7364310;19;1833;-65
2023/08/18 15:10:33;;;;;;;;;;;;;;;;;;7365871;19;874;-65
2023/08/18 15:13:01;;;;;;;;;;;;;;;;;;7366528;19;1368;-65
2023/08/18 15:15:29;;;;;;;;;;;;;;;;;;7366763;19;824;-64
2023/08/18 15:17:57;;;;;;;;;;;;;;;;;;7363756;19;862;-64
2023/08/18 15:20:25;;;;;;;;;;;;;;;;;;7363922;19;806;-64
2023/08/18 15:22:54;;;;;;;;;;;;;;;;;;7368181;19;1353;-64
2023/08/18 15:25:22;;;;;;;;;;;;;;;;;;7364372;19;785;-64
2023/08/18 15:27:50;;;;;;;;;;;;;;;;;;7363512;19;872;-64
2023/08/18 15:30:18;;;;;;;;;;;;;;;;;;7362788;19;1842;-64
2023/08/18 15:32:46;;;;;;;;;;;;;;;;;;7365056;19;1348;-64
2023/08/18 15:35:14;;;;;;;;;;;;;;;;;;7366056;19;868;-64
2023/08/18 15:37:42;;;;;;;;;;;;;;;;;;7365619;19;822;-64
2023/08/18 15:40:11;;;;;;;;;;;;;;;;;;7363711;19;861;-64
2023/08/18 15:42:39;;;;;;;;;;;;;;;;;;7364122;19;1375;-64
2023/08/18 15:45:07;;;;;;;;;;;;;;;;;;7364520;19;766;-64
2023/08/18 15:47:35;;;;;;;;;;;;;;;;;;7365607;19;840;-65
2023/08/18 15:50:03;;;;;;;;;;;;;;;;;;7361701;19;1830;-64
2023/08/18 15:52:31;;;;;;;;;;;;;;;;;;7365056;19;1274;-63
2023/08/18 15:54:59;;;;;;;;;;;;;;;;;;7376340;19;2193;-64
2023/08/18 15:57:28;;;;;;;;;;;;;;;;;;7369571;19;857;-65
2023/08/18 15:59:56;;;;;;;;;;;;;;;;;;7369200;19;896;-65
2023/08/18 16:02:24;;;;;;;;;;;;;;;;;;7370968;19;1330;-65
2023/08/18 16:04:52;;;;;;;;;;;;;;;;;;7370707;19;843;-65
2023/08/18 16:07:20;;;;;;;;;;;;;;;;;;7370714;19;834;-65
2023/08/18 16:09:48;;;;;;;;;;;;;;;;;;7368943;19;1845;-65
2023/08/18 16:12:17;;;;;;;;;;;;;;;;;;7370275;19;1285;-65
2023/08/18 16:14:45;;;;;;;;;;;;;;;;;;7368732;19;2074;-64
2023/08/18 16:17:13;;;;;;;;;;;;;;;;;;7372184;19;1810;-64
2023/08/18 16:19:41;;;;;;;;;;;;;;;;;;7374382;19;1436;-64
2023/08/18 16:22:09;;;;;;;;;;;;;;;;;;7370373;19;862;-65
2023/08/18 16:24:37;;;;;;;;;;;;;;;;;;7370495;19;1858;-64
2023/08/18 16:27:05;;;;;;;;;;;;;;;;;;7371693;19;1808;-65
2023/08/18 16:29:34;;;;;;;;;;;;;;;;;;7372694;19;1818;-64
2023/08/18 16:32:03;;;;;;;;;;;;;;;;;;7370136;19;837;-65
2023/08/18 16:34:31;;;;;;;;;;;;;;;;;;7369890;19;1721;-64
2023/08/18 16:37:00;;;;;;;;;;;;;;;;;;7372543;19;1657;-65
2023/08/18 16:39:28;;;;;;;;;;;;;;;;;;7369881;19;1967;-65
2023/08/18 16:41:56;;;;;;;;;;;;;;;;;;7370700;19;1521;-64
2023/08/18 16:44:25;;;;;;;;;;;;;;;;;;7368113;19;1854;-64
2023/08/18 16:46:53;;;;;;;;;;;;;;;;;;7371872;19;1484;-65
2023/08/18 16:49:21;;;;;;;;;;;;;;;;;;7369735;19;1902;-65
2023/08/18 16:51:49;;;;;;;;;;;;;;;;;;7371836;19;1883;-65
2023/08/18 16:54:18;;;;;;;;;;;;;;;;;;7369185;19;1722;-65
2023/08/18 16:56:47;;;;;;;;;;;;;;;;;;7371139;19;2053;-65
2023/08/18 16:59:15;;;;;;;;;;;;;;;;;;7371003;19;1569;-65
2023/08/18 17:01:43;;;;;;;;;;;;;;;;;;7372739;19;1823;-65
2023/08/18 17:04:11;;;;;;;;;;;;;;;;;;7366212;19;1675;-64
2023/08/18 17:06:39;;;;;;;;;;;;;;;;;;7371969;19;2150;-64
2023/08/18 17:09:07;;;;;;;;;;;;;;;;;;7370075;19;1849;-65
2023/08/18 17:11:36;;;;;;;;;;;;;;;;;;7372363;19;1695;-64